sensor_id;sensor_type;location;lat;lon;timestamp;P1;durP1;ratioP1;P2;durP2;ratioP2
69569;SDS011;56781;42.292;23.146;2023-03-03T00:01:33;10.23;;;4.00;;
69569;SDS011;56781;42.292;23.146;2023-03-03T00:04:00;11.07;;;4.40;;
69569;SDS011;56781;42.292;23.146;2023-03-03T00:06:27;9.98;;;4.78;;
69569;SDS011;56781;42.292;23.146;2023-03-03T00:08:55;11.23;;;5.07;;
69569;SDS011;56781;42.292;23.146;2023-03-03T00:11:23;18.85;;;8.63;;
69569;SDS011;56781;42.292;23.146;2023-03-03T00:13:51;32.88;;;10.63;;
69569;SDS011;56781;42.292;23.146;2023-03-03T00:16:21;25.63;;;8.97;;
69569;SDS011;56781;42.292;23.146;2023-03-03T00:18:52;12.93;;;5.15;;
69569;SDS011;56781;42.292;23.146;2023-03-03T00:23:47;10.15;;;4.05;;
69569;SDS011;56781;42.292;23.146;2023-03-03T00:26:20;12.13;;;5.40;;
69569;SDS011;56781;42.292;23.146;2023-03-03T00:28:50;13.30;;;5.73;;
69569;SDS011;56781;42.292;23.146;2023-03-03T00:31:25;16.30;;;6.60;;
69569;SDS011;56781;42.292;23.146;2023-03-03T00:36:53;18.05;;;6.13;;
69569;SDS011;56781;42.292;23.146;2023-03-03T00:41:55;10.03;;;3.83;;
69569;SDS011;56781;42.292;23.146;2023-03-03T00:47:11;30.98;;;7.93;;
69569;SDS011;56781;42.292;23.146;2023-03-03T00:52:34;12.95;;;4.78;;
69569;SDS011;56781;42.292;23.146;2023-03-03T00:55:03;12.43;;;4.57;;
69569;SDS011;56781;42.292;23.146;2023-03-03T00:57:32;12.95;;;5.13;;
69569;SDS011;56781;42.292;23.146;2023-03-03T00:59:59;18.77;;;6.13;;
69569;SDS011;56781;42.292;23.146;2023-03-03T01:02:26;13.52;;;5.25;;
69569;SDS011;56781;42.292;23.146;2023-03-03T01:04:53;19.23;;;6.43;;
69569;SDS011;56781;42.292;23.146;2023-03-03T01:07:23;22.60;;;7.13;;
69569;SDS011;56781;42.292;23.146;2023-03-03T01:09:51;17.35;;;6.22;;
69569;SDS011;56781;42.292;23.146;2023-03-03T01:12:18;20.35;;;6.90;;
69569;SDS011;56781;42.292;23.146;2023-03-03T01:14:45;15.20;;;5.65;;
69569;SDS011;56781;42.292;23.146;2023-03-03T01:17:14;8.70;;;3.47;;
69569;SDS011;56781;42.292;23.146;2023-03-03T01:19:41;6.40;;;3.00;;
69569;SDS011;56781;42.292;23.146;2023-03-03T01:22:08;8.15;;;3.15;;
69569;SDS011;56781;42.292;23.146;2023-03-03T01:24:36;8.95;;;3.17;;
69569;SDS011;56781;42.292;23.146;2023-03-03T01:27:03;7.63;;;3.03;;
69569;SDS011;56781;42.292;23.146;2023-03-03T01:29:30;11.70;;;3.17;;
69569;SDS011;56781;42.292;23.146;2023-03-03T01:31:57;7.60;;;3.07;;
69569;SDS011;56781;42.292;23.146;2023-03-03T01:34:24;7.70;;;3.60;;
69569;SDS011;56781;42.292;23.146;2023-03-03T01:36:51;10.30;;;3.80;;
69569;SDS011;56781;42.292;23.146;2023-03-03T01:39:18;8.32;;;3.70;;
69569;SDS011;56781;42.292;23.146;2023-03-03T01:41:45;12.90;;;4.95;;
69569;SDS011;56781;42.292;23.146;2023-03-03T01:44:13;14.33;;;5.30;;
69569;SDS011;56781;42.292;23.146;2023-03-03T01:46:43;12.75;;;6.38;;
69569;SDS011;56781;42.292;23.146;2023-03-03T01:49:19;12.48;;;5.82;;
69569;SDS011;56781;42.292;23.146;2023-03-03T01:51:48;11.65;;;5.45;;
69569;SDS011;56781;42.292;23.146;2023-03-03T01:54:24;9.50;;;4.78;;
69569;SDS011;56781;42.292;23.146;2023-03-03T01:56:57;11.80;;;5.90;;
69569;SDS011;56781;42.292;23.146;2023-03-03T01:59:28;38.42;;;11.30;;
69569;SDS011;56781;42.292;23.146;2023-03-03T02:01:59;57.83;;;19.48;;
69569;SDS011;56781;42.292;23.146;2023-03-03T02:04:26;44.97;;;15.77;;
69569;SDS011;56781;42.292;23.146;2023-03-03T02:06:56;54.03;;;18.67;;
69569;SDS011;56781;42.292;23.146;2023-03-03T02:10:03;53.37;;;18.50;;
69569;SDS011;56781;42.292;23.146;2023-03-03T02:12:35;40.92;;;17.02;;
69569;SDS011;56781;42.292;23.146;2023-03-03T02:15:20;24.55;;;10.40;;
69569;SDS011;56781;42.292;23.146;2023-03-03T02:17:58;11.38;;;5.45;;
69569;SDS011;56781;42.292;23.146;2023-03-03T02:26:12;10.45;;;4.15;;
69569;SDS011;56781;42.292;23.146;2023-03-03T02:28:41;11.88;;;4.43;;
69569;SDS011;56781;42.292;23.146;2023-03-03T02:31:13;11.15;;;5.32;;
69569;SDS011;56781;42.292;23.146;2023-03-03T02:33:43;11.23;;;5.40;;
69569;SDS011;56781;42.292;23.146;2023-03-03T02:36:13;12.73;;;5.40;;
69569;SDS011;56781;42.292;23.146;2023-03-03T02:41:57;13.52;;;6.05;;
69569;SDS011;56781;42.292;23.146;2023-03-03T02:44:30;16.60;;;7.07;;
69569;SDS011;56781;42.292;23.146;2023-03-03T02:46:58;19.60;;;8.57;;
69569;SDS011;56781;42.292;23.146;2023-03-03T02:49:27;18.83;;;8.90;;
69569;SDS011;56781;42.292;23.146;2023-03-03T02:51:57;18.50;;;8.82;;
69569;SDS011;56781;42.292;23.146;2023-03-03T02:54:26;20.33;;;8.70;;
69569;SDS011;56781;42.292;23.146;2023-03-03T02:56:56;15.93;;;6.93;;
69569;SDS011;56781;42.292;23.146;2023-03-03T02:59:24;15.18;;;6.13;;
69569;SDS011;56781;42.292;23.146;2023-03-03T03:01:52;13.70;;;5.90;;
69569;SDS011;56781;42.292;23.146;2023-03-03T03:04:23;11.82;;;5.93;;
69569;SDS011;56781;42.292;23.146;2023-03-03T03:06:52;10.63;;;5.40;;
69569;SDS011;56781;42.292;23.146;2023-03-03T03:09:21;10.90;;;5.00;;
69569;SDS011;56781;42.292;23.146;2023-03-03T03:11:49;12.75;;;5.50;;
69569;SDS011;56781;42.292;23.146;2023-03-03T03:14:17;14.97;;;6.00;;
69569;SDS011;56781;42.292;23.146;2023-03-03T03:16:44;21.05;;;6.30;;
69569;SDS011;56781;42.292;23.146;2023-03-03T03:19:11;14.93;;;5.10;;
69569;SDS011;56781;42.292;23.146;2023-03-03T03:21:38;10.80;;;4.50;;
69569;SDS011;56781;42.292;23.146;2023-03-03T03:24:05;9.68;;;3.70;;
69569;SDS011;56781;42.292;23.146;2023-03-03T03:26:32;7.93;;;3.70;;
69569;SDS011;56781;42.292;23.146;2023-03-03T03:29:00;9.43;;;4.07;;
69569;SDS011;56781;42.292;23.146;2023-03-03T03:31:27;8.18;;;4.57;;
69569;SDS011;56781;42.292;23.146;2023-03-03T03:33:54;9.10;;;4.80;;
69569;SDS011;56781;42.292;23.146;2023-03-03T03:36:21;7.65;;;3.90;;
69569;SDS011;56781;42.292;23.146;2023-03-03T03:38:48;11.00;;;4.60;;
69569;SDS011;56781;42.292;23.146;2023-03-03T03:41:15;8.85;;;4.10;;
69569;SDS011;56781;42.292;23.146;2023-03-03T03:43:42;11.63;;;4.95;;
69569;SDS011;56781;42.292;23.146;2023-03-03T03:46:09;13.55;;;6.60;;
69569;SDS011;56781;42.292;23.146;2023-03-03T03:48:37;17.50;;;8.25;;
69569;SDS011;56781;42.292;23.146;2023-03-03T03:51:04;16.37;;;7.50;;
69569;SDS011;56781;42.292;23.146;2023-03-03T03:53:31;14.07;;;6.00;;
69569;SDS011;56781;42.292;23.146;2023-03-03T03:55:59;12.63;;;5.60;;
69569;SDS011;56781;42.292;23.146;2023-03-03T03:58:26;11.20;;;4.85;;
69569;SDS011;56781;42.292;23.146;2023-03-03T04:00:53;9.68;;;4.70;;
69569;SDS011;56781;42.292;23.146;2023-03-03T04:03:21;12.93;;;6.03;;
69569;SDS011;56781;42.292;23.146;2023-03-03T04:05:51;15.60;;;7.20;;
69569;SDS011;56781;42.292;23.146;2023-03-03T04:08:19;15.02;;;7.53;;
69569;SDS011;56781;42.292;23.146;2023-03-03T04:10:46;15.45;;;7.35;;
69569;SDS011;56781;42.292;23.146;2023-03-03T04:13:13;16.80;;;7.70;;
69569;SDS011;56781;42.292;23.146;2023-03-03T04:15:40;20.50;;;8.20;;
69569;SDS011;56781;42.292;23.146;2023-03-03T04:18:07;15.40;;;7.65;;
69569;SDS011;56781;42.292;23.146;2023-03-03T04:20:35;18.08;;;8.32;;
69569;SDS011;56781;42.292;23.146;2023-03-03T04:23:02;21.23;;;9.75;;
69569;SDS011;56781;42.292;23.146;2023-03-03T04:25:29;19.77;;;9.20;;
69569;SDS011;56781;42.292;23.146;2023-03-03T04:27:56;17.83;;;8.77;;
69569;SDS011;56781;42.292;23.146;2023-03-03T04:30:23;19.52;;;9.23;;
69569;SDS011;56781;42.292;23.146;2023-03-03T04:32:50;21.67;;;9.68;;
69569;SDS011;56781;42.292;23.146;2023-03-03T04:35:18;24.27;;;10.07;;
69569;SDS011;56781;42.292;23.146;2023-03-03T04:37:45;22.70;;;10.02;;
69569;SDS011;56781;42.292;23.146;2023-03-03T04:40:13;21.80;;;9.97;;
69569;SDS011;56781;42.292;23.146;2023-03-03T04:42:40;23.83;;;10.23;;
69569;SDS011;56781;42.292;23.146;2023-03-03T04:45:07;21.75;;;10.13;;
69569;SDS011;56781;42.292;23.146;2023-03-03T04:47:35;21.63;;;10.25;;
69569;SDS011;56781;42.292;23.146;2023-03-03T04:50:02;18.77;;;8.98;;
69569;SDS011;56781;42.292;23.146;2023-03-03T04:52:29;19.13;;;8.30;;
69569;SDS011;56781;42.292;23.146;2023-03-03T04:54:57;23.45;;;11.18;;
69569;SDS011;56781;42.292;23.146;2023-03-03T04:57:24;22.50;;;10.88;;
69569;SDS011;56781;42.292;23.146;2023-03-03T04:59:51;12.45;;;5.40;;
69569;SDS011;56781;42.292;23.146;2023-03-03T05:02:18;11.85;;;5.45;;
69569;SDS011;56781;42.292;23.146;2023-03-03T05:04:45;11.87;;;5.07;;
69569;SDS011;56781;42.292;23.146;2023-03-03T05:07:13;13.52;;;6.10;;
69569;SDS011;56781;42.292;23.146;2023-03-03T05:09:40;21.58;;;8.30;;
69569;SDS011;56781;42.292;23.146;2023-03-03T05:12:07;20.10;;;7.55;;
69569;SDS011;56781;42.292;23.146;2023-03-03T05:14:34;28.00;;;11.68;;
69569;SDS011;56781;42.292;23.146;2023-03-03T05:17:02;30.70;;;13.53;;
69569;SDS011;56781;42.292;23.146;2023-03-03T05:19:30;20.10;;;9.18;;
69569;SDS011;56781;42.292;23.146;2023-03-03T05:21:57;20.50;;;8.75;;
69569;SDS011;56781;42.292;23.146;2023-03-03T05:24:24;16.48;;;7.93;;
69569;SDS011;56781;42.292;23.146;2023-03-03T05:26:51;18.38;;;8.13;;
69569;SDS011;56781;42.292;23.146;2023-03-03T05:29:18;15.43;;;7.40;;
69569;SDS011;56781;42.292;23.146;2023-03-03T05:31:45;17.55;;;8.73;;
69569;SDS011;56781;42.292;23.146;2023-03-03T05:34:12;19.38;;;9.63;;
69569;SDS011;56781;42.292;23.146;2023-03-03T05:36:40;18.40;;;7.93;;
69569;SDS011;56781;42.292;23.146;2023-03-03T05:39:07;20.08;;;8.25;;
69569;SDS011;56781;42.292;23.146;2023-03-03T05:41:34;42.13;;;19.10;;
69569;SDS011;56781;42.292;23.146;2023-03-03T05:44:02;29.63;;;13.52;;
69569;SDS011;56781;42.292;23.146;2023-03-03T05:46:29;13.30;;;6.22;;
69569;SDS011;56781;42.292;23.146;2023-03-03T05:48:57;20.10;;;8.00;;
69569;SDS011;56781;42.292;23.146;2023-03-03T05:51:24;17.48;;;7.82;;
69569;SDS011;56781;42.292;23.146;2023-03-03T05:53:51;14.77;;;6.73;;
69569;SDS011;56781;42.292;23.146;2023-03-03T05:56:21;18.60;;;8.25;;
69569;SDS011;56781;42.292;23.146;2023-03-03T05:58:48;36.05;;;17.42;;
69569;SDS011;56781;42.292;23.146;2023-03-03T06:01:15;55.40;;;23.17;;
69569;SDS011;56781;42.292;23.146;2023-03-03T06:03:43;53.00;;;21.75;;
69569;SDS011;56781;42.292;23.146;2023-03-03T06:06:10;43.50;;;17.67;;
69569;SDS011;56781;42.292;23.146;2023-03-03T06:08:37;29.90;;;13.23;;
69569;SDS011;56781;42.292;23.146;2023-03-03T06:11:05;28.30;;;13.60;;
69569;SDS011;56781;42.292;23.146;2023-03-03T06:13:32;22.30;;;9.90;;
69569;SDS011;56781;42.292;23.146;2023-03-03T06:15:59;28.23;;;12.73;;
69569;SDS011;56781;42.292;23.146;2023-03-03T06:18:26;16.03;;;7.97;;
69569;SDS011;56781;42.292;23.146;2023-03-03T06:20:54;34.90;;;13.65;;
69569;SDS011;56781;42.292;23.146;2023-03-03T06:23:21;51.30;;;19.25;;
69569;SDS011;56781;42.292;23.146;2023-03-03T06:25:48;40.58;;;16.23;;
69569;SDS011;56781;42.292;23.146;2023-03-03T06:28:15;48.05;;;19.63;;
69569;SDS011;56781;42.292;23.146;2023-03-03T06:30:42;74.13;;;32.27;;
69569;SDS011;56781;42.292;23.146;2023-03-03T06:33:10;64.55;;;27.85;;
69569;SDS011;56781;42.292;23.146;2023-03-03T06:35:37;28.02;;;12.63;;
69569;SDS011;56781;42.292;23.146;2023-03-03T06:38:04;13.30;;;6.53;;
69569;SDS011;56781;42.292;23.146;2023-03-03T06:40:31;38.95;;;15.18;;
69569;SDS011;56781;42.292;23.146;2023-03-03T06:42:58;31.43;;;13.47;;
69569;SDS011;56781;42.292;23.146;2023-03-03T06:45:27;19.67;;;9.13;;
69569;SDS011;56781;42.292;23.146;2023-03-03T06:47:55;12.15;;;6.40;;
69569;SDS011;56781;42.292;23.146;2023-03-03T06:50:22;21.48;;;10.40;;
69569;SDS011;56781;42.292;23.146;2023-03-03T06:52:49;18.75;;;8.10;;
69569;SDS011;56781;42.292;23.146;2023-03-03T06:55:30;14.50;;;6.80;;
69569;SDS011;56781;42.292;23.146;2023-03-03T06:57:58;12.68;;;6.35;;
69569;SDS011;56781;42.292;23.146;2023-03-03T07:00:26;10.82;;;5.47;;
69569;SDS011;56781;42.292;23.146;2023-03-03T07:03:00;12.85;;;6.25;;
69569;SDS011;56781;42.292;23.146;2023-03-03T07:05:33;14.77;;;6.55;;
69569;SDS011;56781;42.292;23.146;2023-03-03T07:08:00;11.93;;;5.50;;
69569;SDS011;56781;42.292;23.146;2023-03-03T07:10:29;22.48;;;10.98;;
69569;SDS011;56781;42.292;23.146;2023-03-03T07:12:59;18.40;;;8.88;;
69569;SDS011;56781;42.292;23.146;2023-03-03T07:15:37;13.80;;;6.00;;
69569;SDS011;56781;42.292;23.146;2023-03-03T07:18:05;19.48;;;7.13;;
69569;SDS011;56781;42.292;23.146;2023-03-03T07:20:48;16.20;;;6.30;;
69569;SDS011;56781;42.292;23.146;2023-03-03T07:23:25;11.80;;;5.43;;
69569;SDS011;56781;42.292;23.146;2023-03-03T07:25:57;12.82;;;5.93;;
69569;SDS011;56781;42.292;23.146;2023-03-03T07:28:26;9.40;;;4.30;;
69569;SDS011;56781;42.292;23.146;2023-03-03T07:30:55;8.70;;;4.10;;
69569;SDS011;56781;42.292;23.146;2023-03-03T07:35:56;8.38;;;3.92;;
69569;SDS011;56781;42.292;23.146;2023-03-03T07:38:40;6.90;;;3.60;;
69569;SDS011;56781;42.292;23.146;2023-03-03T07:41:15;7.55;;;3.70;;
69569;SDS011;56781;42.292;23.146;2023-03-03T07:43:59;7.57;;;3.58;;
69569;SDS011;56781;42.292;23.146;2023-03-03T07:46:41;8.43;;;3.70;;
69569;SDS011;56781;42.292;23.146;2023-03-03T07:49:20;8.10;;;3.65;;
69569;SDS011;56781;42.292;23.146;2023-03-03T07:51:51;8.52;;;3.42;;
69569;SDS011;56781;42.292;23.146;2023-03-03T07:54:30;8.73;;;4.32;;
69569;SDS011;56781;42.292;23.146;2023-03-03T07:59:45;9.07;;;4.73;;
69569;SDS011;56781;42.292;23.146;2023-03-03T08:05:26;8.52;;;4.28;;
69569;SDS011;56781;42.292;23.146;2023-03-03T08:10:37;10.20;;;5.95;;
69569;SDS011;56781;42.292;23.146;2023-03-03T08:13:21;7.63;;;3.87;;
69569;SDS011;56781;42.292;23.146;2023-03-03T08:18:37;11.85;;;5.05;;
69569;SDS011;56781;42.292;23.146;2023-03-03T08:21:14;11.35;;;5.25;;
69569;SDS011;56781;42.292;23.146;2023-03-03T08:23:44;11.20;;;4.88;;
69569;SDS011;56781;42.292;23.146;2023-03-03T08:26:11;9.10;;;4.40;;
69569;SDS011;56781;42.292;23.146;2023-03-03T08:28:39;11.00;;;4.60;;
69569;SDS011;56781;42.292;23.146;2023-03-03T08:31:06;11.93;;;4.70;;
69569;SDS011;56781;42.292;23.146;2023-03-03T08:33:50;11.90;;;5.10;;
69569;SDS011;56781;42.292;23.146;2023-03-03T08:36:17;11.65;;;5.65;;
69569;SDS011;56781;42.292;23.146;2023-03-03T08:38:45;12.53;;;5.90;;
69569;SDS011;56781;42.292;23.146;2023-03-03T08:41:12;14.23;;;6.57;;
69569;SDS011;56781;42.292;23.146;2023-03-03T08:43:39;8.98;;;4.38;;
69569;SDS011;56781;42.292;23.146;2023-03-03T08:46:06;10.45;;;4.35;;
69569;SDS011;56781;42.292;23.146;2023-03-03T08:48:36;6.88;;;3.90;;
69569;SDS011;56781;42.292;23.146;2023-03-03T08:51:03;7.80;;;3.90;;
69569;SDS011;56781;42.292;23.146;2023-03-03T08:53:31;9.25;;;4.68;;
69569;SDS011;56781;42.292;23.146;2023-03-03T08:56:02;8.57;;;4.30;;
69569;SDS011;56781;42.292;23.146;2023-03-03T08:58:30;9.80;;;4.45;;
69569;SDS011;56781;42.292;23.146;2023-03-03T09:01:01;6.93;;;3.00;;
69569;SDS011;56781;42.292;23.146;2023-03-03T09:03:29;9.13;;;4.00;;
69569;SDS011;56781;42.292;23.146;2023-03-03T09:05:57;8.00;;;3.60;;
69569;SDS011;56781;42.292;23.146;2023-03-03T09:08:24;8.00;;;4.10;;
69569;SDS011;56781;42.292;23.146;2023-03-03T09:10:51;8.40;;;3.90;;
69569;SDS011;56781;42.292;23.146;2023-03-03T09:13:18;11.75;;;6.05;;
69569;SDS011;56781;42.292;23.146;2023-03-03T09:15:46;10.73;;;5.30;;
69569;SDS011;56781;42.292;23.146;2023-03-03T09:18:21;6.50;;;3.28;;
69569;SDS011;56781;42.292;23.146;2023-03-03T09:20:57;5.80;;;2.80;;
69569;SDS011;56781;42.292;23.146;2023-03-03T09:23:27;4.63;;;2.13;;
69569;SDS011;56781;42.292;23.146;2023-03-03T09:26:22;6.85;;;3.00;;
69569;SDS011;56781;42.292;23.146;2023-03-03T09:29:05;13.83;;;7.20;;
69569;SDS011;56781;42.292;23.146;2023-03-03T09:32:01;11.13;;;6.82;;
69569;SDS011;56781;42.292;23.146;2023-03-03T09:34:47;7.60;;;3.72;;
69569;SDS011;56781;42.292;23.146;2023-03-03T09:37:33;7.45;;;2.53;;
69569;SDS011;56781;42.292;23.146;2023-03-03T09:40:25;4.28;;;1.88;;
69569;SDS011;56781;42.292;23.146;2023-03-03T09:48:59;6.03;;;2.80;;
69569;SDS011;56781;42.292;23.146;2023-03-03T09:57:10;19.80;;;11.00;;
69569;SDS011;56781;42.292;23.146;2023-03-03T09:59:46;18.88;;;10.73;;
69569;SDS011;56781;42.292;23.146;2023-03-03T10:02:36;17.15;;;9.18;;
69569;SDS011;56781;42.292;23.146;2023-03-03T10:05:13;13.02;;;7.20;;
69569;SDS011;56781;42.292;23.146;2023-03-03T10:13:43;9.07;;;4.65;;
69569;SDS011;56781;42.292;23.146;2023-03-03T10:16:30;20.02;;;10.57;;
69569;SDS011;56781;42.292;23.146;2023-03-03T10:19:35;24.30;;;14.13;;
69569;SDS011;56781;42.292;23.146;2023-03-03T10:22:18;33.67;;;18.60;;
69569;SDS011;56781;42.292;23.146;2023-03-03T10:36:22;15.00;;;8.75;;
69569;SDS011;56781;42.292;23.146;2023-03-03T10:54:06;20.97;;;11.23;;
69569;SDS011;56781;42.292;23.146;2023-03-03T10:56:56;20.80;;;10.80;;
69569;SDS011;56781;42.292;23.146;2023-03-03T11:02:21;23.02;;;11.20;;
69569;SDS011;56781;42.292;23.146;2023-03-03T11:05:01;23.58;;;12.70;;
69569;SDS011;56781;42.292;23.146;2023-03-03T11:10:20;40.33;;;15.80;;
69569;SDS011;56781;42.292;23.146;2023-03-03T11:40:09;10.20;;;4.53;;
69569;SDS011;56781;42.292;23.146;2023-03-03T11:43:26;9.80;;;4.65;;
69569;SDS011;56781;42.292;23.146;2023-03-03T11:46:04;10.40;;;4.82;;
69569;SDS011;56781;42.292;23.146;2023-03-03T11:48:57;10.80;;;6.60;;
69569;SDS011;56781;42.292;23.146;2023-03-03T11:54:26;8.70;;;4.60;;
69569;SDS011;56781;42.292;23.146;2023-03-03T11:57:14;7.38;;;3.97;;
69569;SDS011;56781;42.292;23.146;2023-03-03T11:59:56;8.80;;;4.65;;
69569;SDS011;56781;42.292;23.146;2023-03-03T12:05:59;12.07;;;5.53;;
69569;SDS011;56781;42.292;23.146;2023-03-03T12:11:25;9.65;;;5.18;;
69569;SDS011;56781;42.292;23.146;2023-03-03T12:19:24;10.15;;;5.30;;
69569;SDS011;56781;42.292;23.146;2023-03-03T12:22:00;34.40;;;14.10;;
69569;SDS011;56781;42.292;23.146;2023-03-03T12:48:08;10.82;;;6.60;;
69569;SDS011;56781;42.292;23.146;2023-03-03T12:53:29;10.57;;;5.93;;
69569;SDS011;56781;42.292;23.146;2023-03-03T12:56:37;14.35;;;7.65;;
69569;SDS011;56781;42.292;23.146;2023-03-03T13:02:03;17.45;;;9.55;;
69569;SDS011;56781;42.292;23.146;2023-03-03T13:04:56;23.67;;;11.95;;
69569;SDS011;56781;42.292;23.146;2023-03-03T13:07:50;25.95;;;14.27;;
69569;SDS011;56781;42.292;23.146;2023-03-03T13:11:02;17.48;;;9.43;;
69569;SDS011;56781;42.292;23.146;2023-03-03T13:13:38;21.33;;;11.07;;
69569;SDS011;56781;42.292;23.146;2023-03-03T13:16:30;17.02;;;9.45;;
69569;SDS011;56781;42.292;23.146;2023-03-03T13:19:08;14.23;;;7.03;;
69569;SDS011;56781;42.292;23.146;2023-03-03T13:24:23;24.90;;;12.73;;
69569;SDS011;56781;42.292;23.146;2023-03-03T13:27:07;15.23;;;7.50;;
69569;SDS011;56781;42.292;23.146;2023-03-03T13:29:43;17.73;;;8.75;;
69569;SDS011;56781;42.292;23.146;2023-03-03T13:32:27;14.23;;;7.40;;
69569;SDS011;56781;42.292;23.146;2023-03-03T13:37:54;14.75;;;7.78;;
69569;SDS011;56781;42.292;23.146;2023-03-03T13:40:36;14.57;;;7.67;;
69569;SDS011;56781;42.292;23.146;2023-03-03T13:43:33;24.17;;;12.73;;
69569;SDS011;56781;42.292;23.146;2023-03-03T13:46:19;31.17;;;16.70;;
69569;SDS011;56781;42.292;23.146;2023-03-03T13:48:55;34.92;;;17.50;;
69569;SDS011;56781;42.292;23.146;2023-03-03T13:59:52;42.00;;;21.70;;
69569;SDS011;56781;42.292;23.146;2023-03-03T14:02:56;47.83;;;24.08;;
69569;SDS011;56781;42.292;23.146;2023-03-03T14:05:40;31.90;;;16.33;;
69569;SDS011;56781;42.292;23.146;2023-03-03T14:10:58;29.65;;;15.88;;
69569;SDS011;56781;42.292;23.146;2023-03-03T14:13:53;26.02;;;13.70;;
69569;SDS011;56781;42.292;23.146;2023-03-03T14:19:45;70.35;;;31.95;;
69569;SDS011;56781;42.292;23.146;2023-03-03T14:22:17;40.13;;;19.13;;
69569;SDS011;56781;42.292;23.146;2023-03-03T14:27:33;32.42;;;15.55;;
69569;SDS011;56781;42.292;23.146;2023-03-03T14:32:58;27.90;;;13.18;;
69569;SDS011;56781;42.292;23.146;2023-03-03T14:35:39;42.80;;;18.90;;
69569;SDS011;56781;42.292;23.146;2023-03-03T14:38:15;34.30;;;16.67;;
69569;SDS011;56781;42.292;23.146;2023-03-03T14:41:02;32.78;;;16.58;;
69569;SDS011;56781;42.292;23.146;2023-03-03T14:43:32;48.53;;;24.50;;
69569;SDS011;56781;42.292;23.146;2023-03-03T14:48:58;39.23;;;18.47;;
69569;SDS011;56781;42.292;23.146;2023-03-03T14:51:29;40.50;;;20.02;;
69569;SDS011;56781;42.292;23.146;2023-03-03T14:54:08;38.70;;;18.15;;
69569;SDS011;56781;42.292;23.146;2023-03-03T14:57:02;34.67;;;17.23;;
69569;SDS011;56781;42.292;23.146;2023-03-03T15:00:05;37.45;;;16.52;;
69569;SDS011;56781;42.292;23.146;2023-03-03T15:02:42;37.20;;;17.50;;
69569;SDS011;56781;42.292;23.146;2023-03-03T15:05:25;45.17;;;20.45;;
69569;SDS011;56781;42.292;23.146;2023-03-03T15:07:54;38.92;;;18.35;;
69569;SDS011;56781;42.292;23.146;2023-03-03T15:10:33;39.80;;;18.27;;
69569;SDS011;56781;42.292;23.146;2023-03-03T15:15:48;25.77;;;13.40;;
69569;SDS011;56781;42.292;23.146;2023-03-03T15:18:18;28.88;;;13.43;;
69569;SDS011;56781;42.292;23.146;2023-03-03T15:20:49;31.13;;;14.98;;
69569;SDS011;56781;42.292;23.146;2023-03-03T15:23:54;28.42;;;13.23;;
69569;SDS011;56781;42.292;23.146;2023-03-03T15:26:28;25.45;;;12.27;;
69569;SDS011;56781;42.292;23.146;2023-03-03T15:34:36;24.55;;;11.63;;
69569;SDS011;56781;42.292;23.146;2023-03-03T15:40:02;25.00;;;11.93;;
69569;SDS011;56781;42.292;23.146;2023-03-03T15:42:32;23.80;;;11.47;;
69569;SDS011;56781;42.292;23.146;2023-03-03T15:45:16;40.30;;;18.52;;
69569;SDS011;56781;42.292;23.146;2023-03-03T15:53:08;24.50;;;11.23;;
69569;SDS011;56781;42.292;23.146;2023-03-03T15:58:50;23.30;;;11.02;;
69569;SDS011;56781;42.292;23.146;2023-03-03T16:01:31;24.88;;;12.20;;
69569;SDS011;56781;42.292;23.146;2023-03-03T16:10:14;29.33;;;13.73;;
69569;SDS011;56781;42.292;23.146;2023-03-03T16:33:00;44.20;;;22.65;;
69569;SDS011;56781;42.292;23.146;2023-03-03T16:40:51;40.08;;;18.67;;
69569;SDS011;56781;42.292;23.146;2023-03-03T16:57:31;24.98;;;11.73;;
69569;SDS011;56781;42.292;23.146;2023-03-03T17:00:17;24.85;;;11.93;;
69569;SDS011;56781;42.292;23.146;2023-03-03T17:05:55;25.10;;;12.17;;
69569;SDS011;56781;42.292;23.146;2023-03-03T17:08:35;21.67;;;10.95;;
69569;SDS011;56781;42.292;23.146;2023-03-03T17:14:21;26.40;;;12.27;;
69569;SDS011;56781;42.292;23.146;2023-03-03T17:19:43;80.73;;;23.40;;
69569;SDS011;56781;42.292;23.146;2023-03-03T17:39:54;60.85;;;28.90;;
69569;SDS011;56781;42.292;23.146;2023-03-03T17:45:18;46.50;;;24.35;;
69569;SDS011;56781;42.292;23.146;2023-03-03T17:48:02;52.67;;;24.63;;
69569;SDS011;56781;42.292;23.146;2023-03-03T17:53:51;72.00;;;33.05;;
69569;SDS011;56781;42.292;23.146;2023-03-03T17:56:26;89.93;;;39.35;;
69569;SDS011;56781;42.292;23.146;2023-03-03T18:04:47;94.97;;;40.08;;
69569;SDS011;56781;42.292;23.146;2023-03-03T18:10:38;60.53;;;25.65;;
69569;SDS011;56781;42.292;23.146;2023-03-03T18:16:06;38.23;;;15.57;;
69569;SDS011;56781;42.292;23.146;2023-03-03T18:18:58;31.13;;;13.65;;
69569;SDS011;56781;42.292;23.146;2023-03-03T18:21:36;40.60;;;18.13;;
69569;SDS011;56781;42.292;23.146;2023-03-03T18:35:37;20.13;;;7.38;;
69569;SDS011;56781;42.292;23.146;2023-03-03T18:40:50;32.97;;;12.80;;
69569;SDS011;56781;42.292;23.146;2023-03-03T18:49:07;18.90;;;7.50;;
69569;SDS011;56781;42.292;23.146;2023-03-03T19:08:02;25.92;;;11.07;;
69569;SDS011;56781;42.292;23.146;2023-03-03T19:10:56;31.83;;;12.40;;
69569;SDS011;56781;42.292;23.146;2023-03-03T19:15:59;51.15;;;19.23;;
69569;SDS011;56781;42.292;23.146;2023-03-03T19:18:34;50.15;;;18.30;;
69569;SDS011;56781;42.292;23.146;2023-03-03T19:26:51;26.15;;;10.50;;
69569;SDS011;56781;42.292;23.146;2023-03-03T19:29:36;24.83;;;9.27;;
69569;SDS011;56781;42.292;23.146;2023-03-03T19:32:31;26.17;;;10.18;;
69569;SDS011;56781;42.292;23.146;2023-03-03T19:35:17;27.02;;;8.73;;
69569;SDS011;56781;42.292;23.146;2023-03-03T19:41:02;24.67;;;9.48;;
69569;SDS011;56781;42.292;23.146;2023-03-03T19:43:42;26.15;;;9.55;;
69569;SDS011;56781;42.292;23.146;2023-03-03T19:51:34;36.20;;;12.37;;
69569;SDS011;56781;42.292;23.146;2023-03-03T19:57:16;29.42;;;10.43;;
69569;SDS011;56781;42.292;23.146;2023-03-03T19:59:59;26.17;;;9.88;;
69569;SDS011;56781;42.292;23.146;2023-03-03T20:06:11;28.07;;;9.50;;
69569;SDS011;56781;42.292;23.146;2023-03-03T20:17:29;178.43;;;53.55;;
69569;SDS011;56781;42.292;23.146;2023-03-03T20:23:52;187.57;;;56.83;;
69569;SDS011;56781;42.292;23.146;2023-03-03T20:29:02;41.25;;;16.90;;
69569;SDS011;56781;42.292;23.146;2023-03-03T20:34:32;21.27;;;9.90;;
69569;SDS011;56781;42.292;23.146;2023-03-03T20:37:05;20.77;;;9.90;;
69569;SDS011;56781;42.292;23.146;2023-03-03T20:39:36;21.00;;;8.75;;
69569;SDS011;56781;42.292;23.146;2023-03-03T20:50:43;21.88;;;9.90;;
69569;SDS011;56781;42.292;23.146;2023-03-03T20:53:22;20.67;;;9.52;;
69569;SDS011;56781;42.292;23.146;2023-03-03T21:07:03;55.97;;;23.10;;
69569;SDS011;56781;42.292;23.146;2023-03-03T21:09:37;43.20;;;18.33;;
69569;SDS011;56781;42.292;23.146;2023-03-03T21:12:38;33.78;;;15.88;;
69569;SDS011;56781;42.292;23.146;2023-03-03T21:14:59;33.23;;;14.20;;
69569;SDS011;56781;42.292;23.146;2023-03-03T21:17:28;30.30;;;12.57;;
69569;SDS011;56781;42.292;23.146;2023-03-03T21:23:00;28.08;;;11.77;;
69569;SDS011;56781;42.292;23.146;2023-03-03T21:28:12;26.20;;;11.67;;
69569;SDS011;56781;42.292;23.146;2023-03-03T21:36:13;23.20;;;10.23;;
69569;SDS011;56781;42.292;23.146;2023-03-03T21:39:23;23.02;;;10.18;;